sensor_id;sensor_type;location;lat;lon;timestamp;pressure;altitude;pressure_sealevel;temperature;humidity
8069;BME280;4077;43.702;24.896;2023-12-14T00:00:19;98310.19;;;2.57;100.00
8069;BME280;4077;43.702;24.896;2023-12-14T00:02:44;98295.66;;;2.53;100.00
8069;BME280;4077;43.702;24.896;2023-12-14T00:05:10;98308.47;;;2.56;100.00
8069;BME280;4077;43.702;24.896;2023-12-14T00:07:35;98304.13;;;2.52;100.00
8069;BME280;4077;43.702;24.896;2023-12-14T00:10:01;98306.69;;;2.54;100.00
8069;BME280;4077;43.702;24.896;2023-12-14T00:12:26;98312.69;;;2.54;100.00
8069;BME280;4077;43.702;24.896;2023-12-14T00:14:52;98304.13;;;2.52;100.00
8069;BME280;4077;43.702;24.896;2023-12-14T00:17:17;98317.72;;;2.53;100.00
8069;BME280;4077;43.702;24.896;2023-12-14T00:19:42;98318.41;;;2.47;100.00
8069;BME280;4077;43.702;24.896;2023-12-14T00:22:08;98316.63;;;2.43;100.00
8069;BME280;4077;43.702;24.896;2023-12-14T00:24:33;98326.06;;;2.47;100.00
8069;BME280;4077;43.702;24.896;2023-12-14T00:26:59;98311.59;;;2.46;100.00
8069;BME280;4077;43.702;24.896;2023-12-14T00:29:24;98320.84;;;2.41;100.00
8069;BME280;4077;43.702;24.896;2023-12-14T00:31:59;98314.88;;;2.40;100.00
8069;BME280;4077;43.702;24.896;2023-12-14T00:34:24;98320.84;;;2.41;100.00
8069;BME280;4077;43.702;24.896;2023-12-14T00:36:50;98312.22;;;2.36;100.00
8069;BME280;4077;43.702;24.896;2023-12-14T00:39:15;98312.13;;;2.33;100.00
8069;BME280;4077;43.702;24.896;2023-12-14T00:41:40;98310.41;;;2.32;100.00
8069;BME280;4077;43.702;24.896;2023-12-14T00:44:06;98317.97;;;2.29;100.00
8069;BME280;4077;43.702;24.896;2023-12-14T00:46:31;98300.91;;;2.25;100.00
8069;BME280;4077;43.702;24.896;2023-12-14T00:48:57;98294.91;;;2.23;100.00
8069;BME280;4077;43.702;24.896;2023-12-14T00:51:22;98292.25;;;2.18;100.00
8069;BME280;4077;43.702;24.896;2023-12-14T00:53:47;98293.97;;;2.19;100.00
8069;BME280;4077;43.702;24.896;2023-12-14T00:56:13;98293.91;;;2.16;100.00
8069;BME280;4077;43.702;24.896;2023-12-14T00:58:38;98300.66;;;2.14;100.00
8069;BME280;4077;43.702;24.896;2023-12-14T01:01:04;98303.84;;;2.07;100.00
8069;BME280;4077;43.702;24.896;2023-12-14T01:03:29;98289.03;;;1.92;100.00
8069;BME280;4077;43.702;24.896;2023-12-14T01:05:55;98301.25;;;2.05;100.00
8069;BME280;4077;43.702;24.896;2023-12-14T01:08:20;98298.44;;;1.95;100.00
8069;BME280;4077;43.702;24.896;2023-12-14T01:10:46;98298.56;;;1.99;100.00
8069;BME280;4077;43.702;24.896;2023-12-14T01:13:11;98297.75;;;2.00;100.00
8069;BME280;4077;43.702;24.896;2023-12-14T01:15:36;98288.44;;;2.01;100.00
8069;BME280;4077;43.702;24.896;2023-12-14T01:18:02;98299.53;;;2.04;100.00
8069;BME280;4077;43.702;24.896;2023-12-14T01:20:27;98302.91;;;2.03;100.00
8069;BME280;4077;43.702;24.896;2023-12-14T01:22:54;98285.75;;;1.96;100.00
8069;BME280;4077;43.702;24.896;2023-12-14T01:25:19;98297.09;;;2.07;100.00
8069;BME280;4077;43.702;24.896;2023-12-14T01:27:45;98297.97;;;2.09;100.00
8069;BME280;4077;43.702;24.896;2023-12-14T01:30:10;98296.25;;;2.08;100.00
8069;BME280;4077;43.702;24.896;2023-12-14T01:32:36;98290.47;;;2.14;100.00
8069;BME280;4077;43.702;24.896;2023-12-14T01:35:01;98288.78;;;2.14;100.00
8069;BME280;4077;43.702;24.896;2023-12-14T01:37:27;98281.03;;;2.11;100.00
8069;BME280;4077;43.702;24.896;2023-12-14T01:39:53;98268.94;;;2.01;100.00
8069;BME280;4077;43.702;24.896;2023-12-14T01:42:18;98285.97;;;2.05;100.00
8069;BME280;4077;43.702;24.896;2023-12-14T01:44:44;98276.53;;;2.00;100.00
8069;BME280;4077;43.702;24.896;2023-12-14T01:47:09;98287.72;;;2.06;100.00
8069;BME280;4077;43.702;24.896;2023-12-14T01:49:35;98291.00;;;2.02;100.00
8069;BME280;4077;43.702;24.896;2023-12-14T01:52:00;98292.50;;;1.94;100.00
8069;BME280;4077;43.702;24.896;2023-12-14T01:54:25;98279.56;;;1.86;100.00
8069;BME280;4077;43.702;24.896;2023-12-14T01:56:51;98275.41;;;1.90;100.00
8069;BME280;4077;43.702;24.896;2023-12-14T01:59:16;98273.69;;;1.89;100.00
8069;BME280;4077;43.702;24.896;2023-12-14T02:01:51;98278.78;;;1.89;100.00
8069;BME280;4077;43.702;24.896;2023-12-14T02:04:17;98268.38;;;1.80;100.00
8069;BME280;4077;43.702;24.896;2023-12-14T02:06:43;98273.63;;;1.86;100.00
8069;BME280;4077;43.702;24.896;2023-12-14T02:09:08;98270.16;;;1.84;100.00
8069;BME280;4077;43.702;24.896;2023-12-14T02:11:35;98270.31;;;1.90;100.00
8069;BME280;4077;43.702;24.896;2023-12-14T02:14:05;98267.78;;;1.90;100.00
8069;BME280;4077;43.702;24.896;2023-12-14T02:16:30;98260.09;;;1.87;100.00
8069;BME280;4077;43.702;24.896;2023-12-14T02:18:56;98263.47;;;1.86;100.00
8069;BME280;4077;43.702;24.896;2023-12-14T02:21:22;98258.38;;;1.86;100.00
8069;BME280;4077;43.702;24.896;2023-12-14T02:23:47;98248.03;;;1.80;100.00
8069;BME280;4077;43.702;24.896;2023-12-14T02:26:13;98260.94;;;1.87;100.00
8069;BME280;4077;43.702;24.896;2023-12-14T02:28:39;98249.75;;;1.81;100.00
8069;BME280;4077;43.702;24.896;2023-12-14T02:31:04;98256.78;;;1.91;100.00
8069;BME280;4077;43.702;24.896;2023-12-14T02:33:30;98249.22;;;1.92;100.00
8069;BME280;4077;43.702;24.896;2023-12-14T02:35:56;98237.28;;;1.91;100.00
8069;BME280;4077;43.702;24.896;2023-12-14T02:38:21;98238.13;;;1.92;100.00
8069;BME280;4077;43.702;24.896;2023-12-14T02:40:47;98231.34;;;1.91;100.00
8069;BME280;4077;43.702;24.896;2023-12-14T02:43:12;98219.28;;;1.84;100.00
8069;BME280;4077;43.702;24.896;2023-12-14T02:45:38;98235.47;;;1.86;100.00
8069;BME280;4077;43.702;24.896;2023-12-14T02:48:04;98225.22;;;1.84;100.00
8069;BME280;4077;43.702;24.896;2023-12-14T02:50:29;98232.00;;;1.84;100.00
8069;BME280;4077;43.702;24.896;2023-12-14T02:52:55;98233.47;;;1.74;100.00
8069;BME280;4077;43.702;24.896;2023-12-14T02:55:21;98235.00;;;1.68;100.00
8069;BME280;4077;43.702;24.896;2023-12-14T02:57:46;98243.25;;;1.59;100.00
8069;BME280;4077;43.702;24.896;2023-12-14T03:00:12;98240.63;;;1.57;100.00
8069;BME280;4077;43.702;24.896;2023-12-14T03:02:37;98250.81;;;1.57;100.00
8069;BME280;4077;43.702;24.896;2023-12-14T03:05:03;98249.88;;;1.54;100.00
8069;BME280;4077;43.702;24.896;2023-12-14T03:07:28;98254.28;;;1.59;100.00
8069;BME280;4077;43.702;24.896;2023-12-14T03:09:54;98232.94;;;1.54;100.00
8069;BME280;4077;43.702;24.896;2023-12-14T03:12:19;98243.31;;;1.62;100.00
8069;BME280;4077;43.702;24.896;2023-12-14T03:14:45;98248.44;;;1.63;100.00
8069;BME280;4077;43.702;24.896;2023-12-14T03:17:10;98231.41;;;1.59;100.00
8069;BME280;4077;43.702;24.896;2023-12-14T03:19:39;98232.22;;;1.58;100.00
8069;BME280;4077;43.702;24.896;2023-12-14T03:22:05;98230.34;;;1.51;100.00
8069;BME280;4077;43.702;24.896;2023-12-14T03:24:31;98239.03;;;1.59;100.00
8069;BME280;4077;43.702;24.896;2023-12-14T03:26:56;98221.78;;;1.49;100.00
8069;BME280;4077;43.702;24.896;2023-12-14T03:29:22;98241.41;;;1.53;100.00
8069;BME280;4077;43.702;24.896;2023-12-14T03:31:47;98229.44;;;1.51;100.00
8069;BME280;4077;43.702;24.896;2023-12-14T03:34:13;98235.31;;;1.48;100.00
8069;BME280;4077;43.702;24.896;2023-12-14T03:36:38;98231.94;;;1.49;100.00
8069;BME280;4077;43.702;24.896;2023-12-14T03:39:04;98235.31;;;1.48;100.00
8069;BME280;4077;43.702;24.896;2023-12-14T03:41:29;98238.63;;;1.44;100.00
8069;BME280;4077;43.702;24.896;2023-12-14T03:43:55;98235.25;;;1.45;100.00
8069;BME280;4077;43.702;24.896;2023-12-14T03:46:20;98232.56;;;1.41;100.00
8069;BME280;4077;43.702;24.896;2023-12-14T03:48:45;98232.41;;;1.34;100.00
8069;BME280;4077;43.702;24.896;2023-12-14T03:51:11;98230.50;;;1.27;100.00
8069;BME280;4077;43.702;24.896;2023-12-14T03:53:36;98212.59;;;1.23;100.00
8069;BME280;4077;43.702;24.896;2023-12-14T03:56:02;98224.63;;;1.30;100.00
8069;BME280;4077;43.702;24.896;2023-12-14T03:58:28;98233.91;;;1.28;100.00
8069;BME280;4077;43.702;24.896;2023-12-14T04:00:53;98222.06;;;1.28;100.00
8069;BME280;4077;43.702;24.896;2023-12-14T04:03:19;98210.97;;;1.25;100.00
8069;BME280;4077;43.702;24.896;2023-12-14T04:05:44;98234.09;;;1.34;100.00
8069;BME280;4077;43.702;24.896;2023-12-14T04:08:10;98215.38;;;1.30;100.00
8069;BME280;4077;43.702;24.896;2023-12-14T04:10:35;98213.50;;;1.25;100.00
8069;BME280;4077;43.702;24.896;2023-12-14T04:13:01;98208.28;;;1.20;100.00
8069;BME280;4077;43.702;24.896;2023-12-14T04:15:26;98214.47;;;1.30;100.00
8069;BME280;4077;43.702;24.896;2023-12-14T04:17:52;98209.41;;;1.30;100.00
8069;BME280;4077;43.702;24.896;2023-12-14T04:20:17;98223.22;;;1.40;100.00
8069;BME280;4077;43.702;24.896;2023-12-14T04:22:43;98209.91;;;1.48;100.00
8069;BME280;4077;43.702;24.896;2023-12-14T04:25:10;98228.59;;;1.50;100.00
8069;BME280;4077;43.702;24.896;2023-12-14T04:27:36;98213.44;;;1.53;100.00
8069;BME280;4077;43.702;24.896;2023-12-14T04:30:01;98204.25;;;1.58;100.00
8069;BME280;4077;43.702;24.896;2023-12-14T04:32:27;98230.41;;;1.54;100.00
8069;BME280;4077;43.702;24.896;2023-12-14T04:34:52;98227.88;;;1.56;100.00
8069;BME280;4077;43.702;24.896;2023-12-14T04:37:18;98213.81;;;1.69;100.00
8069;BME280;4077;43.702;24.896;2023-12-14T04:39:43;98246.09;;;1.71;100.00
8069;BME280;4077;43.702;24.896;2023-12-14T04:42:09;98239.22;;;1.67;100.00
8069;BME280;4077;43.702;24.896;2023-12-14T04:44:34;98235.97;;;1.73;100.00
8069;BME280;4077;43.702;24.896;2023-12-14T04:47:00;98251.53;;;1.85;100.00
8069;BME280;4077;43.702;24.896;2023-12-14T04:49:25;98299.06;;;1.86;100.00
8069;BME280;4077;43.702;24.896;2023-12-14T04:51:50;98353.22;;;1.82;100.00
8069;BME280;4077;43.702;24.896;2023-12-14T04:54:16;98315.88;;;1.81;100.00
8069;BME280;4077;43.702;24.896;2023-12-14T04:56:45;98330.00;;;1.71;100.00
8069;BME280;4077;43.702;24.896;2023-12-14T04:59:11;98347.94;;;1.74;100.00
8069;BME280;4077;43.702;24.896;2023-12-14T05:01:36;98300.22;;;1.66;100.00
8069;BME280;4077;43.702;24.896;2023-12-14T05:04:02;98342.69;;;1.70;100.00
8069;BME280;4077;43.702;24.896;2023-12-14T05:06:28;98297.53;;;1.61;100.00
8069;BME280;4077;43.702;24.896;2023-12-14T05:08:53;98318.13;;;1.70;100.00
8069;BME280;4077;43.702;24.896;2023-12-14T05:11:19;98336.00;;;1.72;100.00
8069;BME280;4077;43.702;24.896;2023-12-14T05:13:44;98336.00;;;1.72;100.00
8069;BME280;4077;43.702;24.896;2023-12-14T05:16:14;98333.56;;;1.76;100.00
8069;BME280;4077;43.702;24.896;2023-12-14T05:18:39;98340.16;;;1.70;100.00
8069;BME280;4077;43.702;24.896;2023-12-14T05:21:05;98314.91;;;1.76;100.00
8069;BME280;4077;43.702;24.896;2023-12-14T05:23:30;98333.56;;;1.76;100.00
8069;BME280;4077;43.702;24.896;2023-12-14T05:25:56;98349.78;;;1.80;100.00
8069;BME280;4077;43.702;24.896;2023-12-14T05:28:21;98348.84;;;1.78;100.00
8069;BME280;4077;43.702;24.896;2023-12-14T05:30:47;98337.88;;;1.79;100.00
8069;BME280;4077;43.702;24.896;2023-12-14T05:33:12;98329.09;;;1.68;100.00
8069;BME280;4077;43.702;24.896;2023-12-14T05:35:38;98336.03;;;1.73;100.00
8069;BME280;4077;43.702;24.896;2023-12-14T05:38:03;98331.03;;;1.78;100.00
8069;BME280;4077;43.702;24.896;2023-12-14T05:40:29;98349.34;;;1.64;100.00
8069;BME280;4077;43.702;24.896;2023-12-14T05:42:54;98352.84;;;1.68;100.00
8069;BME280;4077;43.702;24.896;2023-12-14T05:45:20;98352.63;;;1.60;100.00
8069;BME280;4077;43.702;24.896;2023-12-14T05:47:45;98360.72;;;1.47;100.00
8069;BME280;4077;43.702;24.896;2023-12-14T05:50:11;98374.16;;;1.43;100.00
8069;BME280;4077;43.702;24.896;2023-12-14T05:52:37;98370.72;;;1.41;100.00
8069;BME280;4077;43.702;24.896;2023-12-14T05:55:04;98381.75;;;1.42;100.00
8069;BME280;4077;43.702;24.896;2023-12-14T05:57:29;98381.84;;;1.45;100.00
8069;BME280;4077;43.702;24.896;2023-12-14T05:59:55;98388.47;;;1.40;100.00
8069;BME280;4077;43.702;24.896;2023-12-14T06:02:20;98410.59;;;1.44;100.00
8069;BME280;4077;43.702;24.896;2023-12-14T06:04:46;98414.81;;;1.43;100.00
8069;BME280;4077;43.702;24.896;2023-12-14T06:07:14;98425.94;;;1.45;100.00
8069;BME280;4077;43.702;24.896;2023-12-14T06:09:40;98422.59;;;1.48;100.00
8069;BME280;4077;43.702;24.896;2023-12-14T06:12:05;98432.97;;;1.54;100.00
8069;BME280;4077;43.702;24.896;2023-12-14T06:14:31;98414.34;;;1.55;100.00
8069;BME280;4077;43.702;24.896;2023-12-14T06:16:57;98424.66;;;1.59;100.00
8069;BME280;4077;43.702;24.896;2023-12-14T06:19:23;98428.13;;;1.63;100.00
8069;BME280;4077;43.702;24.896;2023-12-14T06:21:48;98442.72;;;1.69;100.00
8069;BME280;4077;43.702;24.896;2023-12-14T06:24:14;98436.97;;;1.76;100.00
8069;BME280;4077;43.702;24.896;2023-12-14T06:26:43;98411.00;;;1.86;100.00
8069;BME280;4077;43.702;24.896;2023-12-14T06:29:09;98414.53;;;1.91;100.00
8069;BME280;4077;43.702;24.896;2023-12-14T06:31:35;98397.84;;;2.01;100.00
8069;BME280;4077;43.702;24.896;2023-12-14T06:34:01;98382.78;;;2.08;100.00
8069;BME280;4077;43.702;24.896;2023-12-14T06:36:29;98376.00;;;2.09;100.00
8069;BME280;4077;43.702;24.896;2023-12-14T06:38:55;98377.69;;;2.08;100.00
8069;BME280;4077;43.702;24.896;2023-12-14T06:41:22;98377.84;;;2.14;100.00
8069;BME280;4077;43.702;24.896;2023-12-14T06:43:48;98390.00;;;2.25;100.00
8069;BME280;4077;43.702;24.896;2023-12-14T06:46:14;98386.94;;;2.38;100.00
8069;BME280;4077;43.702;24.896;2023-12-14T06:48:40;98397.34;;;2.47;100.00
8069;BME280;4077;43.702;24.896;2023-12-14T06:51:05;98407.97;;;2.62;100.00
8069;BME280;4077;43.702;24.896;2023-12-14T06:53:31;98434.47;;;2.70;100.00
8069;BME280;4077;43.702;24.896;2023-12-14T06:55:56;98433.81;;;2.78;100.00
8069;BME280;4077;43.702;24.896;2023-12-14T06:58:22;98440.84;;;2.88;100.00
8069;BME280;4077;43.702;24.896;2023-12-14T07:00:47;98436.47;;;2.82;100.00
8069;BME280;4077;43.702;24.896;2023-12-14T07:03:13;98468.38;;;3.01;100.00
8069;BME280;4077;43.702;24.896;2023-12-14T07:05:39;98461.78;;;3.09;100.00
8069;BME280;4077;43.702;24.896;2023-12-14T07:08:04;98469.56;;;3.15;100.00
8069;BME280;4077;43.702;24.896;2023-12-14T07:10:30;98500.25;;;3.18;100.00
8069;BME280;4077;43.702;24.896;2023-12-14T07:12:56;98493.44;;;3.19;100.00
8069;BME280;4077;43.702;24.896;2023-12-14T07:15:21;98507.91;;;3.18;100.00
8069;BME280;4077;43.702;24.896;2023-12-14T07:17:47;98520.53;;;3.15;100.00
8069;BME280;4077;43.702;24.896;2023-12-14T07:20:12;98518.09;;;3.18;100.00
8069;BME280;4077;43.702;24.896;2023-12-14T07:22:38;98530.69;;;3.12;100.00
8069;BME280;4077;43.702;24.896;2023-12-14T07:25:03;98498.38;;;3.11;100.00
8069;BME280;4077;43.702;24.896;2023-12-14T07:27:29;98540.28;;;3.22;100.00
8069;BME280;4077;43.702;24.896;2023-12-14T07:29:55;98518.91;;;3.17;100.00
8069;BME280;4077;43.702;24.896;2023-12-14T07:32:21;98534.38;;;3.23;100.00
8069;BME280;4077;43.702;24.896;2023-12-14T07:34:46;98531.19;;;3.32;100.00
8069;BME280;4077;43.702;24.896;2023-12-14T07:37:12;98538.94;;;3.37;100.00
8069;BME280;4077;43.702;24.896;2023-12-14T07:39:38;98531.38;;;3.40;100.00
8069;BME280;4077;43.702;24.896;2023-12-14T07:42:04;98524.66;;;3.43;100.00
8069;BME280;4077;43.702;24.896;2023-12-14T07:44:29;98558.72;;;3.45;100.00
8069;BME280;4077;43.702;24.896;2023-12-14T07:46:56;98539.34;;;3.53;100.00
8069;BME280;4077;43.702;24.896;2023-12-14T07:49:21;98554.53;;;3.49;100.00
8069;BME280;4077;43.702;24.896;2023-12-14T07:51:49;98547.69;;;3.46;100.00
8069;BME280;4077;43.702;24.896;2023-12-14T07:54:14;98570.66;;;3.48;100.00
8069;BME280;4077;43.702;24.896;2023-12-14T07:56:40;98565.13;;;3.64;100.00
8069;BME280;4077;43.702;24.896;2023-12-14T07:59:06;98571.31;;;3.75;100.00
8069;BME280;4077;43.702;24.896;2023-12-14T08:01:33;98592.94;;;3.90;100.00
8069;BME280;4077;43.702;24.896;2023-12-14T08:03:59;98602.53;;;4.00;100.00
8069;BME280;4077;43.702;24.896;2023-12-14T08:06:25;98625.44;;;3.97;100.00
8069;BME280;4077;43.702;24.896;2023-12-14T08:08:51;98630.38;;;3.91;100.00
8069;BME280;4077;43.702;24.896;2023-12-14T08:11:17;98634.06;;;4.02;100.00
8069;BME280;4077;43.702;24.896;2023-12-14T08:13:42;98642.41;;;3.95;100.00
8069;BME280;4077;43.702;24.896;2023-12-14T08:16:08;98624.53;;;3.95;100.00
8069;BME280;4077;43.702;24.896;2023-12-14T08:18:39;98618.56;;;3.94;100.00
8069;BME280;4077;43.702;24.896;2023-12-14T08:21:06;98626.06;;;3.87;100.00
8069;BME280;4077;43.702;24.896;2023-12-14T08:23:31;98632.91;;;3.89;100.00
8069;BME280;4077;43.702;24.896;2023-12-14T08:25:57;98632.34;;;4.01;100.00
8069;BME280;4077;43.702;24.896;2023-12-14T08:28:23;98636.28;;;4.24;100.00
8069;BME280;4077;43.702;24.896;2023-12-14T08:30:49;98622.13;;;4.38;100.00
8069;BME280;4077;43.702;24.896;2023-12-14T08:33:14;98617.44;;;4.58;100.00
8069;BME280;4077;43.702;24.896;2023-12-14T08:35:40;98622.38;;;4.91;100.00
8069;BME280;4077;43.702;24.896;2023-12-14T08:38:06;98620.19;;;5.10;100.00
8069;BME280;4077;43.702;24.896;2023-12-14T08:40:31;98618.16;;;5.39;100.00
8069;BME280;4077;43.702;24.896;2023-12-14T08:42:57;98623.78;;;5.68;100.00
8069;BME280;4077;43.702;24.896;2023-12-14T08:45:22;98648.81;;;5.84;100.00
8069;BME280;4077;43.702;24.896;2023-12-14T08:47:48;98654.38;;;5.62;100.00
8069;BME280;4077;43.702;24.896;2023-12-14T08:50:13;98637.78;;;5.40;100.00
8069;BME280;4077;43.702;24.896;2023-12-14T08:52:39;98636.69;;;5.27;100.00
8069;BME280;4077;43.702;24.896;2023-12-14T08:55:05;98626.44;;;5.26;100.00
8069;BME280;4077;43.702;24.896;2023-12-14T08:57:30;98630.09;;;5.38;100.00
8069;BME280;4077;43.702;24.896;2023-12-14T08:59:56;98631.06;;;5.45;100.00
8069;BME280;4077;43.702;24.896;2023-12-14T09:02:22;98632.84;;;5.49;100.00
8069;BME280;4077;43.702;24.896;2023-12-14T09:04:47;98627.75;;;5.51;100.00
8069;BME280;4077;43.702;24.896;2023-12-14T09:07:12;98616.22;;;5.27;100.00
8069;BME280;4077;43.702;24.896;2023-12-14T09:09:38;98625.34;;;5.13;100.00
8069;BME280;4077;43.702;24.896;2023-12-14T09:12:04;98632.91;;;5.07;100.00
8069;BME280;4077;43.702;24.896;2023-12-14T09:14:29;98634.53;;;5.02;100.00
8069;BME280;4077;43.702;24.896;2023-12-14T09:16:55;98614.69;;;4.90;100.00
8069;BME280;4077;43.702;24.896;2023-12-14T09:19:21;98603.59;;;4.89;100.00
8069;BME280;4077;43.702;24.896;2023-12-14T09:21:47;98606.16;;;4.89;100.00
8069;BME280;4077;43.702;24.896;2023-12-14T09:24:12;98600.31;;;4.97;100.00
8069;BME280;4077;43.702;24.896;2023-12-14T09:26:37;98603.28;;;5.18;100.00
8069;BME280;4077;43.702;24.896;2023-12-14T09:29:03;98604.50;;;5.38;100.00
8069;BME280;4077;43.702;24.896;2023-12-14T09:31:29;98611.47;;;5.45;100.00
8069;BME280;4077;43.702;24.896;2023-12-14T09:33:54;98613.25;;;5.49;100.00
8069;BME280;4077;43.702;24.896;2023-12-14T09:36:19;98618.50;;;5.59;100.00
8069;BME280;4077;43.702;24.896;2023-12-14T09:38:45;98600.63;;;5.62;100.00
8069;BME280;4077;43.702;24.896;2023-12-14T09:41:11;98585.38;;;5.69;100.00
8069;BME280;4077;43.702;24.896;2023-12-14T09:43:37;98601.72;;;5.76;100.00
8069;BME280;4077;43.702;24.896;2023-12-14T09:46:03;98605.09;;;5.72;100.00
8069;BME280;4077;43.702;24.896;2023-12-14T09:48:29;98616.81;;;5.61;100.00
8069;BME280;4077;43.702;24.896;2023-12-14T09:50:55;98612.63;;;5.63;100.00
8069;BME280;4077;43.702;24.896;2023-12-14T09:53:20;98612.78;;;5.73;100.00
8069;BME280;4077;43.702;24.896;2023-12-14T09:55:46;98610.44;;;5.87;100.00
8069;BME280;4077;43.702;24.896;2023-12-14T09:58:12;98611.66;;;6.09;100.00
8069;BME280;4077;43.702;24.896;2023-12-14T10:00:41;98608.50;;;6.27;100.00
8069;BME280;4077;43.702;24.896;2023-12-14T10:03:27;98612.22;;;6.47;100.00
8069;BME280;4077;43.702;24.896;2023-12-14T10:05:57;98604.69;;;6.60;100.00
8069;BME280;4077;43.702;24.896;2023-12-14T10:08:23;98620.16;;;6.66;100.00
8069;BME280;4077;43.702;24.896;2023-12-14T10:10:51;98616.94;;;6.82;100.00
8069;BME280;4077;43.702;24.896;2023-12-14T10:13:18;98624.03;;;7.04;100.00
8069;BME280;4077;43.702;24.896;2023-12-14T10:15:46;98617.41;;;7.22;100.00
8069;BME280;4077;43.702;24.896;2023-12-14T10:18:21;98622.69;;;7.40;100.00
8069;BME280;4077;43.702;24.896;2023-12-14T10:20:46;98609.06;;;7.44;100.00
8069;BME280;4077;43.702;24.896;2023-12-14T10:23:12;98627.25;;;7.68;100.00
8069;BME280;4077;43.702;24.896;2023-12-14T10:25:38;98626.47;;;7.76;100.00
8069;BME280;4077;43.702;24.896;2023-12-14T10:28:03;98629.91;;;7.78;100.00
8069;BME280;4077;43.702;24.896;2023-12-14T10:30:29;98632.47;;;7.78;100.00
8069;BME280;4077;43.702;24.896;2023-12-14T10:32:56;98648.81;;;7.86;100.00
8069;BME280;4077;43.702;24.896;2023-12-14T10:35:22;98654.81;;;7.86;100.00
8069;BME280;4077;43.702;24.896;2023-12-14T10:37:51;98645.50;;;7.99;100.00
8069;BME280;4077;43.702;24.896;2023-12-14T10:40:17;98647.22;;;8.00;100.00
8069;BME280;4077;43.702;24.896;2023-12-14T10:42:44;98641.22;;;7.98;100.00
8069;BME280;4077;43.702;24.896;2023-12-14T10:45:14;98637.00;;;8.09;100.00
8069;BME280;4077;43.702;24.896;2023-12-14T10:47:46;98642.13;;;8.09;100.00
8069;BME280;4077;43.702;24.896;2023-12-14T10:50:12;98630.03;;;7.94;100.00
8069;BME280;4077;43.702;24.896;2023-12-14T10:52:41;98643.84;;;8.07;100.00
8069;BME280;4077;43.702;24.896;2023-12-14T10:55:21;98642.13;;;8.09;100.00
8069;BME280;4077;43.702;24.896;2023-12-14T10:57:47;98626.66;;;8.00;100.00
8069;BME280;4077;43.702;24.896;2023-12-14T11:00:15;98631.84;;;8.09;100.00
8069;BME280;4077;43.702;24.896;2023-12-14T11:02:45;98651.63;;;8.15;100.00
8069;BME280;4077;43.702;24.896;2023-12-14T11:05:13;98653.38;;;8.17;100.00
8069;BME280;4077;43.702;24.896;2023-12-14T11:07:53;98652.56;;;8.28;100.00
8069;BME280;4077;43.702;24.896;2023-12-14T11:10:27;98639.66;;;8.21;100.00
8069;BME280;4077;43.702;24.896;2023-12-14T11:13:05;98659.47;;;8.32;100.00
8069;BME280;4077;43.702;24.896;2023-12-14T11:15:34;98667.16;;;8.30;100.00
8069;BME280;4077;43.702;24.896;2023-12-14T11:23:11;98658.47;;;8.16;100.00
8069;BME280;4077;43.702;24.896;2023-12-14T11:25:39;98679.13;;;8.23;100.00
8069;BME280;4077;43.702;24.896;2023-12-14T11:28:06;98680.88;;;8.31;100.00
8069;BME280;4077;43.702;24.896;2023-12-14T11:30:33;98682.56;;;8.29;100.00
8069;BME280;4077;43.702;24.896;2023-12-14T11:33:00;98673.19;;;8.31;100.00
8069;BME280;4077;43.702;24.896;2023-12-14T11:35:25;98672.31;;;8.33;100.00
8069;BME280;4077;43.702;24.896;2023-12-14T11:37:51;98675.75;;;8.32;100.00
8069;BME280;4077;43.702;24.896;2023-12-14T11:40:16;98662.03;;;8.35;100.00
8069;BME280;4077;43.702;24.896;2023-12-14T11:43:00;98667.25;;;8.41;100.00
8069;BME280;4077;43.702;24.896;2023-12-14T11:45:26;98668.13;;;8.40;100.00
8069;BME280;4077;43.702;24.896;2023-12-14T11:47:52;98656.00;;;8.30;100.00
8069;BME280;4077;43.702;24.896;2023-12-14T11:50:17;98673.31;;;8.44;100.00
8069;BME280;4077;43.702;24.896;2023-12-14T11:52:43;98683.59;;;8.50;100.00
8069;BME280;4077;43.702;24.896;2023-12-14T11:55:12;98687.97;;;8.62;100.00
8069;BME280;4077;43.702;24.896;2023-12-14T11:57:38;98672.53;;;8.59;100.00
8069;BME280;4077;43.702;24.896;2023-12-14T12:00:04;98678.59;;;8.70;100.00
8069;BME280;4077;43.702;24.896;2023-12-14T12:02:32;98677.75;;;8.76;100.00
8069;BME280;4077;43.702;24.896;2023-12-14T12:04:57;98679.47;;;8.77;100.00
8069;BME280;4077;43.702;24.896;2023-12-14T12:07:23;98684.66;;;8.85;100.00
8069;BME280;4077;43.702;24.896;2023-12-14T12:09:48;98677.84;;;8.88;100.00
8069;BME280;4077;43.702;24.896;2023-12-14T12:12:14;98676.97;;;8.88;100.00
8069;BME280;4077;43.702;24.896;2023-12-14T12:14:40;98680.44;;;8.93;100.00
8069;BME280;4077;43.702;24.896;2023-12-14T12:17:07;98689.06;;;9.01;100.00
8069;BME280;4077;43.702;24.896;2023-12-14T12:19:37;98680.50;;;9.08;100.00
8069;BME280;4077;43.702;24.896;2023-12-14T12:22:03;98694.25;;;9.19;100.00
8069;BME280;4077;43.702;24.896;2023-12-14T12:24:29;98685.72;;;9.23;100.00
8069;BME280;4077;43.702;24.896;2023-12-14T12:26:55;98686.59;;;9.30;100.00
8069;BME280;4077;43.702;24.896;2023-12-14T12:29:21;98692.59;;;9.30;100.00
8069;BME280;4077;43.702;24.896;2023-12-14T12:31:46;98691.75;;;9.30;100.00
8069;BME280;4077;43.702;24.896;2023-12-14T12:34:12;98698.63;;;9.26;100.00
8069;BME280;4077;43.702;24.896;2023-12-14T12:36:38;98694.31;;;9.30;100.00
8069;BME280;4077;43.702;24.896;2023-12-14T12:39:04;98704.66;;;9.35;100.00
8069;BME280;4077;43.702;24.896;2023-12-14T12:41:32;98711.50;;;9.36;100.00
8069;BME280;4077;43.702;24.896;2023-12-14T12:43:58;98711.50;;;9.37;100.00
8069;BME280;4077;43.702;24.896;2023-12-14T12:46:24;98711.53;;;9.42;100.00
8069;BME280;4077;43.702;24.896;2023-12-14T12:48:50;98714.94;;;9.39;100.00
8069;BME280;4077;43.702;24.896;2023-12-14T12:51:16;98725.25;;;9.47;100.00
8069;BME280;4077;43.702;24.896;2023-12-14T12:53:42;98709.78;;;9.35;100.00
8069;BME280;4077;43.702;24.896;2023-12-14T12:56:07;98728.69;;;9.46;100.00
8069;BME280;4077;43.702;24.896;2023-12-14T12:58:33;98731.31;;;9.50;100.00
8069;BME280;4077;43.702;24.896;2023-12-14T13:00:58;98722.72;;;9.51;100.00
8069;BME280;4077;43.702;24.896;2023-12-14T13:03:24;98721.00;;;9.50;100.00
8069;BME280;4077;43.702;24.896;2023-12-14T13:05:49;98724.44;;;9.52;100.00
8069;BME280;4077;43.702;24.896;2023-12-14T13:08:14;98728.75;;;9.55;100.00